Allen, Alabama
Current Conditions -  °F | °C
As of 9:16 AM on Sunday 21 Dec 2014 (Local Time) from KGZH Reporting Station
Broken Clouds Broken Clouds  
Wind Chill: 57°   Ceiling: 1000
Heat Index: 57°   Visibility: 7mi
Dew Point: 51°   Wind: 7mph
Humidity: 81%   Direction: 30°NNE
Pressure: 30.13"   Gusts: NA
Location:  31.6°N, 87.71°W
Report Text: KGZH 211516Z AUTO 03006KT 7SM BKN010 14/11 A3013 RMK AO2 T01390106
Loading
Personal Weather Stations






























Interactive Weather Map New forecast layout! Learn more

10-Day Weather Forecast

Advertisements
Track Severe Weather on mobile